KGEY/GEY METAR and TAF weather

Enter ICAO airport designator
Station Type Date Time Source
KGEY METAR 2021/02/28 02:53 UTC NOAA

KGEY 280253Z AUTO 33012KT 10SM CLR M05/M09 A2997 RMK AO2 SLP191 T10501094 51032


Station Type Date Time Source
KGEY Decoded METAR 2021/02/28 02:53 UTC NOAA

SOUTH BIG HORN COUNTY AIRPORT , WY, United States (KGEY) 44-31N 108-05W 1191M
Feb 27, 2021 - 09:53 PM EST / 2021.02.28 0253 UTC
Wind: from the NNW (330 degrees) at 14 MPH (12 KT):0
Visibility: 10 mile(s):0
Sky conditions: clear
Temperature: 23.0 F (-5.0 C)
Windchill: 10 F (-12 C):1
Dew Point: 15.1 F (-9.4 C)
Relative Humidity: 71%
Pressure (altimeter): 29.97 in. Hg (1014 hPa)
Pressure tendency: 0.09 inches (3.2 hPa) higher than three hours ago
ob: KGEY 280253Z AUTO 33012KT 10SM CLR M05/M09 A2997 RMK AO2 SLP191 T10501094 51032
cycle: 3

Station Type Date Time Source
KGEY TAF UTC NOAA

Error!

Example: see airport list